Sanko Maru — JG5227 — position and weather

sailwx.info

Track history (hours):
 
Tides and Currents Weather Stations Pressure Air Temp Water Temp Dewpoint Dewpoint Depression Visibility Wind Speed Wind Dir Waves Ship Positions

Sanko Maru

Last reported at 2017-Oct-17 21:58 UTC. Time now 2017-Oct-17 22:26 UTC.
Position N 35°24' E 139°45'.

Length 104 m; draft 6.5 m.

Type: Ship (hazmat cat A). MMSI: 431100146.

Date/timePositionNaut miles runAvg speedWind from/ knotsBaromVisibWave heightAir tempDewpointWater temp
2017-Oct-17 21:58N 35°24' E 139°45'0 0.0
2017-Oct-17 21:28N 35°24' E 139°45'0 0.0
2017-Oct-17 20:58N 35°24' E 139°45'0 0.0
2017-Oct-17 20:28N 35°24' E 139°45'0 0.0
2017-Oct-17 19:58N 35°24' E 139°45'0 0.0
2017-Oct-17 19:25N 35°24' E 139°45'0 0.0
2017-Oct-17 18:58N 35°24' E 139°45'0 0.0
2017-Oct-17 18:28N 35°24' E 139°45'0 0.1
2017-Oct-17 17:58N 35°24' E 139°45'0 0.1
2017-Oct-17 17:28N 35°24' E 139°45'0 0.0
2017-Oct-17 16:58N 35°24' E 139°45'0 0.0
2017-Oct-17 16:28N 35°24' E 139°45'0 0.0
2017-Oct-17 15:55N 35°24' E 139°45'0 0.1
2017-Oct-17 15:28N 35°24' E 139°45'0 0.0
2017-Oct-17 14:58N 35°24' E 139°45'0 0.1
2017-Oct-17 14:25N 35°24' E 139°45'0 0.1
2017-Oct-17 13:55N 35°24' E 139°45'0 0.1
2017-Oct-17 13:28N 35°24' E 139°45'0 0.0
2017-Oct-17 12:58N 35°24' E 139°45'0 0.0
2017-Oct-17 12:25N 35°24' E 139°45'0 0.0
2017-Oct-17 11:58N 35°24' E 139°45'0 0.0
2017-Oct-17 11:28N 35°24' E 139°45'0 0.0
2017-Oct-17 10:58N 35°24' E 139°45'0 0.0
2017-Oct-17 10:28N 35°24' E 139°45'0 0.0
2017-Oct-17 09:58N 35°24' E 139°45'0 0.0
2017-Oct-17 09:28N 35°24' E 139°45'0 0.0
2017-Oct-17 08:58N 35°24' E 139°45'0 0.0
2017-Oct-17 08:28N 35°24' E 139°45'0 0.0
2017-Oct-17 07:58N 35°24' E 139°45'0 0.0
2017-Oct-17 07:28N 35°24' E 139°45'0 0.1
2017-Oct-17 06:58N 35°24' E 139°45'5 9.8
2017-Oct-17 06:30N 35°27' E 139°49'611.0
2017-Oct-17 06:00N 35°30' E 139°55'5 0.6
2017-Oct-16 22:01N 35°29' E 140°01'0 8.9
2017-Oct-16 21:59N 35°29' E 140°01'1 2.5
2017-Oct-16 21:30N 35°30' E 139°60'0 0.0
2017-Oct-16 21:00N 35°30' E 139°60'0 0.0
2017-Oct-16 20:30N 35°30' E 139°60'0 0.0
2017-Oct-16 19:58N 35°30' E 139°60'0 0.0
2017-Oct-16 19:30N 35°30' E 139°60'0 0.0
2017-Oct-16 19:00N 35°30' E 139°60'0 0.0
2017-Oct-16 18:29N 35°30' E 139°60'0 0.0
2017-Oct-16 17:56N 35°30' E 139°60'0 0.0
2017-Oct-16 17:30N 35°30' E 139°60'0 0.0
2017-Oct-16 17:00N 35°30' E 139°60'0 0.1
2017-Oct-16 16:27N 35°30' E 139°60'0 0.0
2017-Oct-16 15:56N 35°30' E 139°60'0 0.0
2017-Oct-16 15:24N 35°30' E 139°60'0 0.0
2017-Oct-16 14:38N 35°30' E 139°60'0 0.0
2017-Oct-16 14:27N 35°30' E 139°60'0 0.1
2017-Oct-16 13:30N 35°30' E 139°60'0 0.0
2017-Oct-16 13:00N 35°30' E 139°60'0 0.0
2017-Oct-16 12:30N 35°30' E 139°60'0 0.0
2017-Oct-16 12:00N 35°30' E 139°60'0 0.0
2017-Oct-16 11:28N 35°30' E 139°60'0 0.0
2017-Oct-16 10:51N 35°30' E 139°60'0 0.0
2017-Oct-16 10:30N 35°30' E 139°60'0 0.0
2017-Oct-16 09:57N 35°30' E 139°60'0 0.0
2017-Oct-16 09:30N 35°30' E 139°60'0 0.0
2017-Oct-16 09:00N 35°30' E 139°60'0 0.0
2017-Oct-16 08:30N 35°30' E 139°60'0 0.0
2017-Oct-16 08:00N 35°30' E 139°60'0 0.0
2017-Oct-16 07:30N 35°30' E 139°60'0 0.0
2017-Oct-16 07:00N 35°30' E 139°60'3 5.4
2017-Oct-16 06:27N 35°30' E 139°56'511.2
2017-Oct-16 06:00N 35°30' E 139°50'510.1
2017-Oct-16 05:30N 35°30' E 139°44'1 1.8
2017-Oct-16 05:00N 35°29' E 139°43'0 0.0
2017-Oct-16 04:30N 35°29' E 139°43'0 0.0
2017-Oct-16 04:00N 35°29' E 139°43'0 0.0
2017-Oct-16 03:30N 35°29' E 139°43'0 0.0
2017-Oct-16 02:57N 35°29' E 139°43'0 0.0
2017-Oct-16 02:30N 35°29' E 139°43'0 0.0
2017-Oct-16 02:00N 35°29' E 139°43'0 0.0
2017-Oct-16 01:30N 35°29' E 139°43'0 0.0
2017-Oct-16 01:00N 35°29' E 139°43'0 0.0
2017-Oct-16 00:27N 35°29' E 139°43'0 0.2
2017-Oct-16 00:00N 35°29' E 139°43'1 2.4
2017-Oct-15 23:30N 35°28' E 139°42'3 5.8
2017-Oct-15 23:00N 35°26' E 139°44'2 4.0
2017-Oct-15 22:30N 35°24' E 139°44'0 0.0
2017-Oct-15 22:00N 35°24' E 139°44'0 0.0
2017-Oct-15 21:21N 35°24' E 139°44'0 0.0
2017-Oct-15 21:00N 35°24' E 139°44'0 0.0
2017-Oct-15 20:27N 35°24' E 139°44'0 0.0
2017-Oct-15 20:00N 35°24' E 139°44'0 0.0
2017-Oct-15 19:30N 35°24' E 139°44'0 0.0
2017-Oct-15 18:57N 35°24' E 139°44'0 0.0
2017-Oct-15 18:30N 35°24' E 139°44'0 0.0
2017-Oct-15 18:00N 35°24' E 139°44'0 0.0
2017-Oct-15 17:30N 35°24' E 139°44'0 0.0
2017-Oct-15 17:00N 35°24' E 139°44'0 0.0
2017-Oct-15 16:30N 35°24' E 139°44'0 0.0
2017-Oct-15 16:00N 35°24' E 139°44'0 0.0
2017-Oct-15 15:30N 35°24' E 139°44'0 0.0
2017-Oct-15 15:00N 35°24' E 139°44'8 8.4
2017-Oct-15 14:00N 35°29' E 139°52'711.5
2017-Oct-15 13:24N 35°29' E 140°00'1 0.1
2017-Oct-15 04:28N 35°29' E 140°01'5 0.2
2017-Oct-14 07:59N 35°33' E 139°58'611.9
2017-Oct-14 07:30N 35°29' E 139°53'611.6
2017-Oct-14 07:00N 35°25' E 139°48'611.7
2017-Oct-14 06:31N 35°20' E 139°45'510.9
2017-Oct-14 06:00N 35°15' E 139°47'611.6
2017-Oct-14 05:30N 35°09' E 139°46'611.7
2017-Oct-14 05:00N 35°04' E 139°42'611.9
2017-Oct-14 04:30N 35°00' E 139°37'612.8
2017-Oct-14 04:00N 34°56' E 139°31'7 0.2
2017-Oct-12 16:01N 34°58' E 139°23'110.8
2017-Oct-12 15:58N 34°59' E 139°24'511.5
2017-Oct-12 15:30N 35°01' E 139°30'612.4
2017-Oct-12 15:00N 35°04' E 139°36'612.1
2017-Oct-12 14:30N 35°07' E 139°43'612.4
2017-Oct-12 14:00N 35°13' E 139°46'612.8
2017-Oct-12 13:30N 35°19' E 139°44'612.4
2017-Oct-12 13:00N 35°25' E 139°44'613.1
2017-Oct-12 12:31N 35°29' E 139°50'713.5
2017-Oct-12 11:59N 35°32' E 139°58'9 0.7
2017-Oct-11 22:50N 35°27' E 139°49'412.4
2017-Oct-11 22:30N 35°23' E 139°46'611.5
2017-Oct-11 22:00N 35°18' E 139°45'612.2
2017-Oct-11 21:30N 35°12' E 139°47'612.4
2017-Oct-11 21:00N 35°06' E 139°45'612.5
2017-Oct-11 20:30N 35°02' E 139°39'714.0
2017-Oct-11 20:00N 34°57' E 139°32'18 0.5
2017-Oct-10 09:17N 34°52' E 139°11'1212.7
2017-Oct-10 08:20N 34°59' E 139°23'412.8
2017-Oct-10 08:00N 35°01' E 139°28'612.9
2017-Oct-10 07:30N 35°04' E 139°34'714.0
2017-Oct-10 07:00N 35°07' E 139°42'713.6
2017-Oct-10 06:30N 35°13' E 139°46'612.7
2017-Oct-10 06:00N 35°19' E 139°43'611.9
2017-Oct-10 05:30N 35°25' E 139°43'713.7
2017-Oct-10 05:00N 35°29' E 139°50'8 1.2
2017-Oct-09 22:32N 35°35' E 139°56'010.6
2017-Oct-09 22:30N 35°35' E 139°55'6 0.2
2017-Oct-08 20:57N 35°30' E 139°58'0 0.0
2017-Oct-08 20:30N 35°30' E 139°58'0 0.0
2017-Oct-08 20:00N 35°30' E 139°58'0 0.0
2017-Oct-08 19:30N 35°30' E 139°58'0 0.0
2017-Oct-08 19:00N 35°30' E 139°58'0 0.0
2017-Oct-08 18:30N 35°30' E 139°58'0 0.0
2017-Oct-08 18:00N 35°30' E 139°58'0 0.0
2017-Oct-08 17:30N 35°30' E 139°58'0 0.0
2017-Oct-08 17:00N 35°30' E 139°58'0 0.0
2017-Oct-08 16:30N 35°30' E 139°58'0 0.0
2017-Oct-08 16:00N 35°30' E 139°58'0 0.0
2017-Oct-08 15:30N 35°30' E 139°58'0 0.0
2017-Oct-08 15:00N 35°30' E 139°58'0 0.0
2017-Oct-08 14:30N 35°30' E 139°58'0 0.0
2017-Oct-08 14:00N 35°30' E 139°58'0 0.0
2017-Oct-08 12:54N 35°30' E 139°58'0 0.0
2017-Oct-08 12:24N 35°30' E 139°58'3 0.7
2017-Oct-08 08:27N 35°30' E 139°55'512.1
2017-Oct-08 08:00N 35°31' E 139°48'1 0.2
2017-Oct-08 03:47N 35°32' E 139°48'1 2.8
2017-Oct-08 03:30N 35°31' E 139°48'2 3.7
2017-Oct-08 03:00N 35°31' E 139°50'0 0.0
2017-Oct-08 02:30N 35°31' E 139°50'0 0.0
2017-Oct-08 02:00N 35°31' E 139°50'0 0.0
2017-Oct-08 01:24N 35°31' E 139°50'0 0.0
2017-Oct-08 01:00N 35°31' E 139°50'2 4.2
2017-Oct-08 00:30N 35°29' E 139°49'611.7
2017-Oct-08 00:00N 35°24' E 139°46'510.9
2017-Oct-07 23:30N 35°18' E 139°44'611.1
2017-Oct-07 23:00N 35°13' E 139°47'612.4
2017-Oct-07 22:30N 35°07' E 139°46'612.7
2017-Oct-07 22:00N 35°02' E 139°41'  
Track history (hours):
 
Tides and Currents Weather Stations Pressure Air Temp Water Temp Dewpoint Dewpoint Depression Visibility Wind Speed Wind Dir Waves Ship Positions

Sanko Maru

Last reported at 2017-Oct-17 21:58 UTC. Time now 2017-Oct-17 22:26 UTC.
Position N 35°24' E 139°45'.

Length 104 m; draft 6.5 m.

Type: Ship (hazmat cat A). MMSI: 431100146.

Date/timePositionNaut miles runAvg speedWind from/ knotsBaromVisibWave heightAir tempDewpointWater temp
2017-Oct-17 21:58N 35°24' E 139°45'0 0.0
2017-Oct-17 21:28N 35°24' E 139°45'0 0.0
2017-Oct-17 20:58N 35°24' E 139°45'0 0.0
2017-Oct-17 20:28N 35°24' E 139°45'0 0.0
2017-Oct-17 19:58N 35°24' E 139°45'0 0.0
2017-Oct-17 19:25N 35°24' E 139°45'0 0.0
2017-Oct-17 18:58N 35°24' E 139°45'0 0.0
2017-Oct-17 18:28N 35°24' E 139°45'0 0.1
2017-Oct-17 17:58N 35°24' E 139°45'0 0.1
2017-Oct-17 17:28N 35°24' E 139°45'0 0.0
2017-Oct-17 16:58N 35°24' E 139°45'0 0.0
2017-Oct-17 16:28N 35°24' E 139°45'0 0.0
2017-Oct-17 15:55N 35°24' E 139°45'0 0.1
2017-Oct-17 15:28N 35°24' E 139°45'0 0.0
2017-Oct-17 14:58N 35°24' E 139°45'0 0.1
2017-Oct-17 14:25N 35°24' E 139°45'0 0.1
2017-Oct-17 13:55N 35°24' E 139°45'0 0.1
2017-Oct-17 13:28N 35°24' E 139°45'0 0.0
2017-Oct-17 12:58N 35°24' E 139°45'0 0.0
2017-Oct-17 12:25N 35°24' E 139°45'0 0.0
2017-Oct-17 11:58N 35°24' E 139°45'0 0.0
2017-Oct-17 11:28N 35°24' E 139°45'0 0.0
2017-Oct-17 10:58N 35°24' E 139°45'0 0.0
2017-Oct-17 10:28N 35°24' E 139°45'0 0.0
2017-Oct-17 09:58N 35°24' E 139°45'0 0.0
2017-Oct-17 09:28N 35°24' E 139°45'0 0.0
2017-Oct-17 08:58N 35°24' E 139°45'0 0.0
2017-Oct-17 08:28N 35°24' E 139°45'0 0.0
2017-Oct-17 07:58N 35°24' E 139°45'0 0.0
2017-Oct-17 07:28N 35°24' E 139°45'0 0.1
2017-Oct-17 06:58N 35°24' E 139°45'5 9.8
2017-Oct-17 06:30N 35°27' E 139°49'611.0
2017-Oct-17 06:00N 35°30' E 139°55'5 0.6
2017-Oct-16 22:01N 35°29' E 140°01'0 8.9
2017-Oct-16 21:59N 35°29' E 140°01'1 2.5
2017-Oct-16 21:30N 35°30' E 139°60'0 0.0
2017-Oct-16 21:00N 35°30' E 139°60'0 0.0
2017-Oct-16 20:30N 35°30' E 139°60'0 0.0
2017-Oct-16 19:58N 35°30' E 139°60'0 0.0
2017-Oct-16 19:30N 35°30' E 139°60'0 0.0
2017-Oct-16 19:00N 35°30' E 139°60'0 0.0
2017-Oct-16 18:29N 35°30' E 139°60'0 0.0
2017-Oct-16 17:56N 35°30' E 139°60'0 0.0
2017-Oct-16 17:30N 35°30' E 139°60'0 0.0
2017-Oct-16 17:00N 35°30' E 139°60'0 0.1
2017-Oct-16 16:27N 35°30' E 139°60'0 0.0
2017-Oct-16 15:56N 35°30' E 139°60'0 0.0
2017-Oct-16 15:24N 35°30' E 139°60'0 0.0
2017-Oct-16 14:38N 35°30' E 139°60'0 0.0
2017-Oct-16 14:27N 35°30' E 139°60'0 0.1
2017-Oct-16 13:30N 35°30' E 139°60'0 0.0
2017-Oct-16 13:00N 35°30' E 139°60'0 0.0
2017-Oct-16 12:30N 35°30' E 139°60'0 0.0
2017-Oct-16 12:00N 35°30' E 139°60'0 0.0
2017-Oct-16 11:28N 35°30' E 139°60'0 0.0
2017-Oct-16 10:51N 35°30' E 139°60'0 0.0
2017-Oct-16 10:30N 35°30' E 139°60'0 0.0
2017-Oct-16 09:57N 35°30' E 139°60'0 0.0
2017-Oct-16 09:30N 35°30' E 139°60'0 0.0
2017-Oct-16 09:00N 35°30' E 139°60'0 0.0
2017-Oct-16 08:30N 35°30' E 139°60'0 0.0
2017-Oct-16 08:00N 35°30' E 139°60'0 0.0
2017-Oct-16 07:30N 35°30' E 139°60'0 0.0
2017-Oct-16 07:00N 35°30' E 139°60'3 5.4
2017-Oct-16 06:27N 35°30' E 139°56'511.2
2017-Oct-16 06:00N 35°30' E 139°50'510.1
2017-Oct-16 05:30N 35°30' E 139°44'1 1.8
2017-Oct-16 05:00N 35°29' E 139°43'0 0.0
2017-Oct-16 04:30N 35°29' E 139°43'0 0.0
2017-Oct-16 04:00N 35°29' E 139°43'0 0.0
2017-Oct-16 03:30N 35°29' E 139°43'0 0.0
2017-Oct-16 02:57N 35°29' E 139°43'0 0.0
2017-Oct-16 02:30N 35°29' E 139°43'0 0.0
2017-Oct-16 02:00N 35°29' E 139°43'0 0.0
2017-Oct-16 01:30N 35°29' E 139°43'0 0.0
2017-Oct-16 01:00N 35°29' E 139°43'0 0.0
2017-Oct-16 00:27N 35°29' E 139°43'0 0.2
2017-Oct-16 00:00N 35°29' E 139°43'1 2.4
2017-Oct-15 23:30N 35°28' E 139°42'3 5.8
2017-Oct-15 23:00N 35°26' E 139°44'2 4.0
2017-Oct-15 22:30N 35°24' E 139°44'0 0.0
2017-Oct-15 22:00N 35°24' E 139°44'0 0.0
2017-Oct-15 21:21N 35°24' E 139°44'0 0.0
2017-Oct-15 21:00N 35°24' E 139°44'0 0.0
2017-Oct-15 20:27N 35°24' E 139°44'0 0.0
2017-Oct-15 20:00N 35°24' E 139°44'0 0.0
2017-Oct-15 19:30N 35°24' E 139°44'0 0.0
2017-Oct-15 18:57N 35°24' E 139°44'0 0.0
2017-Oct-15 18:30N 35°24' E 139°44'0 0.0
2017-Oct-15 18:00N 35°24' E 139°44'0 0.0
2017-Oct-15 17:30N 35°24' E 139°44'0 0.0
2017-Oct-15 17:00N 35°24' E 139°44'0 0.0
2017-Oct-15 16:30N 35°24' E 139°44'0 0.0
2017-Oct-15 16:00N 35°24' E 139°44'0 0.0
2017-Oct-15 15:30N 35°24' E 139°44'0 0.0
2017-Oct-15 15:00N 35°24' E 139°44'8 8.4
2017-Oct-15 14:00N 35°29' E 139°52'711.5
2017-Oct-15 13:24N 35°29' E 140°00'1 0.1
2017-Oct-15 04:28N 35°29' E 140°01'5 0.2
2017-Oct-14 07:59N 35°33' E 139°58'611.9
2017-Oct-14 07:30N 35°29' E 139°53'611.6
2017-Oct-14 07:00N 35°25' E 139°48'611.7
2017-Oct-14 06:31N 35°20' E 139°45'510.9
2017-Oct-14 06:00N 35°15' E 139°47'611.6
2017-Oct-14 05:30N 35°09' E 139°46'611.7
2017-Oct-14 05:00N 35°04' E 139°42'611.9
2017-Oct-14 04:30N 35°00' E 139°37'612.8
2017-Oct-14 04:00N 34°56' E 139°31'7 0.2
2017-Oct-12 16:01N 34°58' E 139°23'110.8
2017-Oct-12 15:58N 34°59' E 139°24'511.5
2017-Oct-12 15:30N 35°01' E 139°30'612.4
2017-Oct-12 15:00N 35°04' E 139°36'612.1
2017-Oct-12 14:30N 35°07' E 139°43'612.4
2017-Oct-12 14:00N 35°13' E 139°46'612.8
2017-Oct-12 13:30N 35°19' E 139°44'612.4
2017-Oct-12 13:00N 35°25' E 139°44'613.1
2017-Oct-12 12:31N 35°29' E 139°50'713.5
2017-Oct-12 11:59N 35°32' E 139°58'9 0.7
2017-Oct-11 22:50N 35°27' E 139°49'412.4
2017-Oct-11 22:30N 35°23' E 139°46'611.5
2017-Oct-11 22:00N 35°18' E 139°45'612.2
2017-Oct-11 21:30N 35°12' E 139°47'612.4
2017-Oct-11 21:00N 35°06' E 139°45'612.5
2017-Oct-11 20:30N 35°02' E 139°39'714.0
2017-Oct-11 20:00N 34°57' E 139°32'18 0.5
2017-Oct-10 09:17N 34°52' E 139°11'1212.7
2017-Oct-10 08:20N 34°59' E 139°23'412.8
2017-Oct-10 08:00N 35°01' E 139°28'612.9
2017-Oct-10 07:30N 35°04' E 139°34'714.0
2017-Oct-10 07:00N 35°07' E 139°42'713.6
2017-Oct-10 06:30N 35°13' E 139°46'612.7
2017-Oct-10 06:00N 35°19' E 139°43'611.9
2017-Oct-10 05:30N 35°25' E 139°43'713.7
2017-Oct-10 05:00N 35°29' E 139°50'8 1.2
2017-Oct-09 22:32N 35°35' E 139°56'010.6
2017-Oct-09 22:30N 35°35' E 139°55'6 0.2
2017-Oct-08 20:57N 35°30' E 139°58'0 0.0
2017-Oct-08 20:30N 35°30' E 139°58'0 0.0
2017-Oct-08 20:00N 35°30' E 139°58'0 0.0
2017-Oct-08 19:30N 35°30' E 139°58'0 0.0
2017-Oct-08 19:00N 35°30' E 139°58'0 0.0
2017-Oct-08 18:30N 35°30' E 139°58'0 0.0
2017-Oct-08 18:00N 35°30' E 139°58'0 0.0
2017-Oct-08 17:30N 35°30' E 139°58'0 0.0
2017-Oct-08 17:00N 35°30' E 139°58'0 0.0
2017-Oct-08 16:30N 35°30' E 139°58'0 0.0
2017-Oct-08 16:00N 35°30' E 139°58'0 0.0
2017-Oct-08 15:30N 35°30' E 139°58'0 0.0
2017-Oct-08 15:00N 35°30' E 139°58'0 0.0
2017-Oct-08 14:30N 35°30' E 139°58'0 0.0
2017-Oct-08 14:00N 35°30' E 139°58'0 0.0
2017-Oct-08 12:54N 35°30' E 139°58'0 0.0
2017-Oct-08 12:24N 35°30' E 139°58'3 0.7
2017-Oct-08 08:27N 35°30' E 139°55'512.1
2017-Oct-08 08:00N 35°31' E 139°48'1 0.2
2017-Oct-08 03:47N 35°32' E 139°48'1 2.8
2017-Oct-08 03:30N 35°31' E 139°48'2 3.7
2017-Oct-08 03:00N 35°31' E 139°50'0 0.0
2017-Oct-08 02:30N 35°31' E 139°50'0 0.0
2017-Oct-08 02:00N 35°31' E 139°50'0 0.0
2017-Oct-08 01:24N 35°31' E 139°50'0 0.0
2017-Oct-08 01:00N 35°31' E 139°50'2 4.2
2017-Oct-08 00:30N 35°29' E 139°49'611.7
2017-Oct-08 00:00N 35°24' E 139°46'510.9
2017-Oct-07 23:30N 35°18' E 139°44'611.1
2017-Oct-07 23:00N 35°13' E 139°47'612.4
2017-Oct-07 22:30N 35°07' E 139°46'612.7
2017-Oct-07 22:00N 35°02' E 139°41'  

Dump ship's entire track history